createdAt,value
2018-08-31T00:00:56.365Z,77.96
2018-08-31T00:03:22.696Z,78.13
2018-08-31T00:05:48.992Z,79.03
2018-08-31T00:08:15.326Z,79.25
2018-08-31T00:10:41.644Z,79.39
2018-08-31T00:13:07.962Z,79.32
2018-08-31T00:15:34.293Z,79.74
2018-08-31T00:18:00.639Z,80.45
2018-08-31T00:20:26.957Z,80.50
2018-08-31T00:22:53.284Z,79.42
2018-08-31T00:25:19.635Z,79.31
2018-08-31T00:27:45.948Z,79.71
2018-08-31T00:30:12.265Z,80.10
2018-08-31T00:32:38.586Z,80.13
2018-08-31T00:35:04.912Z,80.82
2018-08-31T00:37:31.246Z,81.07
2018-08-31T00:39:57.560Z,81.86
2018-08-31T00:42:23.891Z,82.21
2018-08-31T00:44:50.230Z,82.37
2018-08-31T00:47:16.553Z,82.39
2018-08-31T00:49:42.928Z,82.89
2018-08-31T00:52:09.330Z,83.30
2018-08-31T00:54:35.718Z,83.37
2018-08-31T00:57:02.078Z,83.67
2018-08-31T00:59:28.413Z,84.11
2018-08-31T01:01:54.777Z,83.63
2018-08-31T01:04:21.121Z,84.16
2018-08-31T01:06:47.533Z,84.46
2018-08-31T01:09:13.852Z,84.93
2018-08-31T01:11:40.181Z,84.86
2018-08-31T01:14:06.537Z,85.32
2018-08-31T01:16:32.891Z,85.41
2018-08-31T01:18:59.214Z,86.14
2018-08-31T01:21:25.556Z,85.91
2018-08-31T01:23:51.871Z,86.04
2018-08-31T01:26:18.179Z,86.62
2018-08-31T01:28:44.540Z,86.76
2018-08-31T01:31:10.860Z,86.68
2018-08-31T01:33:37.178Z,87.55
2018-08-31T01:36:03.493Z,88.05
2018-08-31T01:38:29.817Z,88.21
2018-08-31T01:40:56.139Z,88.50
2018-08-31T01:43:22.464Z,88.38
2018-08-31T01:45:48.789Z,89.02
2018-08-31T01:48:15.105Z,89.50
2018-08-31T01:50:41.424Z,89.80
2018-08-31T01:53:07.754Z,89.09
2018-08-31T01:55:34.093Z,89.09
2018-08-31T01:58:00.419Z,89.08
2018-08-31T02:00:26.726Z,88.86
2018-08-31T02:02:53.042Z,89.37
2018-08-31T02:05:19.408Z,89.75
2018-08-31T02:07:45.768Z,89.84
2018-08-31T02:10:12.087Z,89.98
2018-08-31T02:12:38.408Z,89.97
2018-08-31T02:15:04.797Z,90.27
2018-08-31T02:17:31.192Z,89.83
2018-08-31T02:19:57.522Z,90.21
2018-08-31T02:22:28.803Z,90.13
2018-08-31T02:25:05.703Z,90.36
2018-08-31T02:27:27.960Z,91.02
2018-08-31T02:29:51.936Z,91.18
2018-08-31T02:32:18.246Z,90.92
2018-08-31T02:34:44.615Z,90.99
2018-08-31T02:37:10.940Z,91.30
2018-08-31T02:39:37.255Z,91.11
2018-08-31T02:42:03.562Z,91.47
2018-08-31T02:44:29.893Z,91.68
2018-08-31T02:46:56.230Z,91.68
2018-08-31T02:49:22.544Z,91.60
2018-08-31T02:51:48.863Z,92.22
2018-08-31T02:54:15.184Z,92.18
2018-08-31T02:56:41.505Z,92.03
2018-08-31T02:59:07.832Z,92.49
2018-08-31T03:01:34.156Z,92.82
2018-08-31T03:04:00.473Z,92.84
2018-08-31T03:06:26.796Z,92.73
2018-08-31T03:08:53.113Z,92.78
2018-08-31T03:11:19.429Z,92.75
2018-08-31T03:13:45.761Z,92.96
2018-08-31T03:16:12.086Z,93.22
2018-08-31T03:18:38.396Z,92.70
2018-08-31T03:21:04.723Z,92.80
2018-08-31T03:23:31.053Z,93.22
2018-08-31T03:25:57.376Z,93.30
2018-08-31T03:28:23.699Z,93.46
2018-08-31T03:30:50.029Z,93.05
2018-08-31T03:33:16.358Z,93.28
2018-08-31T03:35:42.685Z,93.63
2018-08-31T03:38:09.015Z,93.49
2018-08-31T03:40:35.332Z,93.31
2018-08-31T03:43:01.658Z,93.32
2018-08-31T03:45:27.983Z,93.29
2018-08-31T03:47:54.335Z,94.14
2018-08-31T03:50:20.676Z,93.61
2018-08-31T03:52:47.045Z,93.38
2018-08-31T03:55:13.371Z,94.04
2018-08-31T03:57:39.736Z,94.31
2018-08-31T04:00:06.046Z,93.95
2018-08-31T04:02:32.367Z,94.32
2018-08-31T04:04:58.699Z,94.97
2018-08-31T04:07:25.028Z,94.61
2018-08-31T04:09:51.357Z,94.36
2018-08-31T04:12:17.665Z,94.32
2018-08-31T04:14:44.013Z,93.98
2018-08-31T04:17:10.337Z,94.58
2018-08-31T04:22:22.731Z,95.08
2018-08-31T04:24:49.040Z,95.48
2018-08-31T04:27:15.359Z,95.29
2018-08-31T04:29:41.678Z,96.11
2018-08-31T04:32:07.999Z,96.54
2018-08-31T04:34:34.326Z,96.32
2018-08-31T04:37:00.667Z,95.87
2018-08-31T04:39:27.019Z,95.70
2018-08-31T04:41:53.318Z,95.19
2018-08-31T04:44:19.639Z,95.48
2018-08-31T04:46:45.969Z,95.20
2018-08-31T04:49:12.283Z,95.47
2018-08-31T04:51:38.637Z,95.25
2018-08-31T04:54:04.952Z,94.97
2018-08-31T04:56:31.319Z,95.00
2018-08-31T04:58:57.755Z,95.58
2018-08-31T05:01:24.001Z,94.88
2018-08-31T05:03:50.338Z,93.42
2018-08-31T05:06:16.707Z,93.35
2018-08-31T05:08:43.062Z,93.79
2018-08-31T05:11:09.384Z,93.43
2018-08-31T05:13:35.756Z,93.01
2018-08-31T05:16:02.133Z,92.72
2018-08-31T05:18:28.389Z,93.22
2018-08-31T05:20:54.708Z,94.49
2018-08-31T05:23:21.037Z,93.31
2018-08-31T05:25:47.361Z,92.37
2018-08-31T05:28:13.687Z,92.34
2018-08-31T05:30:40.009Z,91.69
2018-08-31T05:33:06.396Z,90.46
2018-08-31T05:35:32.668Z,87.74
2018-08-31T05:37:59.005Z,86.75
2018-08-31T05:40:25.327Z,86.25
2018-08-31T05:42:51.653Z,86.27
2018-08-31T05:45:17.974Z,82.07
2018-08-31T05:47:44.374Z,82.97
2018-08-31T05:50:10.667Z,82.26
2018-08-31T05:52:37.034Z,83.44
2018-08-31T05:55:03.375Z,84.13
2018-08-31T05:57:29.700Z,85.74
2018-08-31T05:59:56.020Z,88.95
2018-08-31T06:02:22.349Z,89.48
2018-08-31T06:04:48.670Z,90.24
2018-08-31T06:07:14.988Z,92.89
2018-08-31T06:09:41.308Z,92.90
2018-08-31T06:12:07.639Z,93.03
2018-08-31T06:14:33.961Z,94.86
2018-08-31T06:17:00.279Z,91.93
2018-08-31T06:19:26.598Z,93.33
2018-08-31T06:21:52.910Z,94.62
2018-08-31T06:24:19.229Z,94.16
2018-08-31T06:26:45.546Z,92.20
2018-08-31T06:29:24.832Z,92.81
2018-08-31T06:31:51.116Z,93.69
2018-08-31T06:34:17.445Z,90.90
2018-08-31T06:36:43.762Z,91.89
2018-08-31T06:39:10.096Z,91.58
2018-08-31T06:41:36.421Z,87.80
2018-08-31T06:44:02.735Z,87.63
2018-08-31T06:46:29.055Z,86.19
2018-08-31T06:48:55.388Z,84.77
2018-08-31T06:51:21.784Z,84.45
2018-08-31T06:53:48.049Z,82.76
2018-08-31T06:56:14.364Z,83.33
2018-08-31T06:58:40.668Z,82.37
2018-08-31T07:01:06.993Z,82.42
2018-08-31T07:03:33.306Z,83.90
2018-08-31T07:05:59.623Z,83.67
2018-08-31T07:08:25.936Z,80.79
2018-08-31T07:10:52.256Z,79.69
2018-08-31T07:13:18.572Z,80.48
2018-08-31T07:15:44.893Z,80.71
2018-08-31T07:18:11.216Z,81.92
2018-08-31T07:20:37.538Z,81.94
2018-08-31T07:23:03.861Z,82.03
2018-08-31T07:25:30.207Z,80.86
2018-08-31T07:27:56.577Z,80.68
2018-08-31T07:30:22.896Z,81.88
2018-08-31T07:32:49.208Z,80.34
2018-08-31T07:35:15.515Z,79.10
2018-08-31T07:37:41.827Z,77.78
2018-08-31T07:40:08.148Z,76.32
2018-08-31T07:42:34.484Z,76.48
2018-08-31T07:45:00.796Z,74.23
2018-08-31T07:47:27.105Z,72.37
2018-08-31T07:49:53.416Z,73.25
2018-08-31T07:52:19.740Z,74.54
2018-08-31T07:54:46.063Z,73.87
2018-08-31T07:57:12.384Z,73.35
2018-08-31T07:59:38.703Z,73.21
2018-08-31T08:02:05.015Z,70.91
2018-08-31T08:04:31.336Z,70.91
2018-08-31T08:06:57.649Z,71.76
2018-08-31T08:09:23.955Z,69.52
2018-08-31T08:11:50.265Z,69.53
2018-08-31T08:14:16.586Z,70.05
2018-08-31T08:16:42.900Z,68.41
2018-08-31T08:19:09.244Z,65.87
2018-08-31T08:21:35.539Z,64.84
2018-08-31T08:24:01.857Z,64.63
2018-08-31T08:26:28.166Z,61.66
2018-08-31T08:28:54.494Z,62.49
2018-08-31T08:31:20.818Z,62.79
2018-08-31T08:33:47.128Z,65.06
2018-08-31T08:36:13.471Z,67.03
2018-08-31T08:38:39.787Z,64.74
2018-08-31T08:41:06.115Z,59.19
2018-08-31T08:43:32.443Z,55.66
2018-08-31T08:45:58.756Z,56.43
2018-08-31T08:48:25.094Z,58.22
2018-08-31T08:50:51.371Z,59.62
2018-08-31T08:53:17.701Z,57.40
2018-08-31T08:55:44.008Z,58.52
2018-08-31T08:58:10.361Z,56.46
2018-08-31T09:00:36.675Z,54.94
2018-08-31T09:03:02.975Z,55.24
2018-08-31T09:05:29.330Z,56.46
2018-08-31T09:07:55.599Z,55.34
2018-08-31T09:10:21.916Z,56.75
2018-08-31T09:12:48.229Z,53.55
2018-08-31T09:15:14.545Z,54.11
2018-08-31T09:17:40.860Z,55.47
2018-08-31T09:20:07.234Z,52.96
2018-08-31T09:22:33.594Z,52.97
2018-08-31T09:24:59.907Z,55.07
2018-08-31T09:27:26.225Z,53.55
2018-08-31T09:29:52.567Z,54.98
2018-08-31T09:32:18.895Z,51.19
2018-08-31T09:34:45.257Z,50.41
2018-08-31T09:37:11.636Z,53.00
2018-08-31T09:39:37.996Z,51.36
2018-08-31T09:42:04.307Z,49.43
2018-08-31T09:44:30.625Z,47.54
2018-08-31T09:46:56.949Z,46.02
2018-08-31T09:49:23.339Z,45.61
2018-08-31T09:51:49.648Z,48.66
2018-08-31T09:54:15.974Z,49.75
2018-08-31T09:56:42.298Z,46.45
2018-08-31T09:59:08.623Z,46.87
2018-08-31T10:01:34.937Z,46.92
2018-08-31T10:04:01.263Z,43.25
2018-08-31T10:06:27.582Z,44.43
2018-08-31T10:08:53.920Z,42.95
2018-08-31T10:11:20.233Z,43.43
2018-08-31T10:13:46.572Z,44.62
2018-08-31T10:16:12.899Z,42.33
2018-08-31T10:18:39.232Z,44.07
2018-08-31T10:21:05.564Z,44.64
2018-08-31T10:23:31.879Z,44.03
2018-08-31T10:25:58.214Z,42.02
2018-08-31T10:28:24.527Z,40.98
2018-08-31T10:30:50.847Z,41.15
2018-08-31T10:33:17.202Z,42.28
2018-08-31T10:35:43.512Z,43.15
2018-08-31T10:38:09.871Z,43.61
2018-08-31T10:40:36.202Z,42.46
2018-08-31T10:43:02.530Z,42.61
2018-08-31T10:45:28.840Z,40.28
2018-08-31T10:47:55.155Z,41.30
2018-08-31T10:50:21.479Z,42.29
2018-08-31T10:52:47.826Z,40.42
2018-08-31T10:55:14.147Z,39.46
2018-08-31T10:57:40.495Z,39.34
2018-08-31T11:00:06.889Z,40.65
2018-08-31T11:02:33.196Z,39.01
2018-08-31T11:04:59.521Z,39.23
2018-08-31T11:07:25.835Z,38.58
2018-08-31T11:09:52.166Z,39.01
2018-08-31T11:12:18.495Z,38.76
2018-08-31T11:14:44.808Z,38.64
2018-08-31T11:17:11.128Z,38.08
2018-08-31T11:19:37.451Z,39.90
2018-08-31T11:22:03.778Z,38.99
2018-08-31T11:24:30.092Z,37.88
2018-08-31T11:26:56.421Z,37.63
2018-08-31T11:29:22.750Z,38.07
2018-08-31T11:31:49.081Z,38.73
2018-08-31T11:34:15.386Z,36.39
2018-08-31T11:36:41.719Z,35.27
2018-08-31T11:39:08.051Z,35.07
2018-08-31T11:41:34.415Z,35.24
2018-08-31T11:44:00.710Z,35.62
2018-08-31T11:46:27.045Z,35.16
2018-08-31T11:48:53.366Z,36.92
2018-08-31T11:51:19.702Z,37.09
2018-08-31T11:53:46.063Z,34.18
2018-08-31T11:56:12.396Z,33.62
2018-08-31T11:58:38.761Z,32.77
2018-08-31T12:03:31.403Z,35.08
2018-08-31T12:05:57.712Z,35.38
2018-08-31T12:08:24.029Z,35.23
2018-08-31T12:10:50.355Z,35.53
2018-08-31T12:13:16.717Z,34.33
2018-08-31T12:15:43.043Z,34.96
2018-08-31T12:18:09.365Z,33.82
2018-08-31T12:20:35.693Z,34.31
2018-08-31T12:23:02.022Z,35.16
2018-08-31T12:25:28.390Z,36.48
2018-08-31T12:27:54.767Z,34.16
2018-08-31T12:30:21.129Z,35.22
2018-08-31T12:32:47.457Z,34.51
2018-08-31T12:35:13.781Z,35.03
2018-08-31T12:40:06.437Z,34.81
2018-08-31T12:42:32.769Z,35.98
2018-08-31T12:44:59.095Z,36.06
2018-08-31T12:47:25.426Z,35.79
2018-08-31T12:49:51.740Z,36.42
2018-08-31T12:52:18.055Z,35.65
2018-08-31T12:54:44.371Z,35.61
2018-08-31T12:57:10.689Z,35.65
2018-08-31T12:59:37.015Z,36.10
2018-08-31T13:02:03.324Z,35.79
2018-08-31T13:04:29.631Z,35.26
2018-08-31T13:06:56.030Z,35.44
2018-08-31T13:09:22.300Z,36.51
2018-08-31T13:11:48.612Z,34.94
2018-08-31T13:14:14.923Z,35.25
2018-08-31T13:16:41.251Z,34.41
2018-08-31T13:19:07.568Z,35.77
2018-08-31T13:21:33.899Z,35.51
2018-08-31T13:24:00.264Z,35.21
2018-08-31T13:26:26.548Z,35.44
2018-08-31T13:28:52.856Z,35.42
2018-08-31T13:31:19.393Z,35.95
2018-08-31T13:33:45.532Z,34.71
2018-08-31T13:36:11.838Z,35.62
2018-08-31T13:38:38.155Z,35.29
2018-08-31T13:41:04.470Z,34.60
2018-08-31T13:43:30.780Z,36.31
2018-08-31T13:45:57.113Z,35.57
2018-08-31T13:48:23.463Z,34.76
2018-08-31T13:50:49.771Z,36.34
2018-08-31T13:53:16.103Z,37.52
2018-08-31T13:55:42.411Z,36.10
2018-08-31T13:58:08.754Z,35.81
2018-08-31T14:00:35.070Z,35.90
2018-08-31T14:03:01.522Z,36.75
2018-08-31T14:05:27.837Z,36.28
2018-08-31T14:07:54.188Z,36.21
2018-08-31T14:10:20.501Z,36.92
2018-08-31T14:12:46.934Z,35.78
2018-08-31T14:15:13.188Z,36.23
2018-08-31T14:17:39.520Z,37.43
2018-08-31T14:20:05.861Z,36.87
2018-08-31T14:22:32.172Z,36.63
2018-08-31T14:24:58.492Z,36.95
2018-08-31T14:27:24.823Z,38.08
2018-08-31T14:29:51.294Z,37.33
2018-08-31T14:32:17.474Z,37.34
2018-08-31T14:34:43.804Z,38.10
2018-08-31T14:37:10.123Z,37.24
2018-08-31T14:39:36.492Z,37.58
2018-08-31T14:42:02.845Z,37.37
2018-08-31T14:44:29.193Z,38.23
2018-08-31T14:46:55.531Z,38.76
2018-08-31T14:49:21.889Z,38.07
2018-08-31T14:51:48.153Z,39.02
2018-08-31T14:54:14.508Z,38.17
2018-08-31T14:56:40.819Z,38.34
2018-08-31T14:59:07.145Z,38.68
2018-08-31T15:01:33.469Z,39.44
2018-08-31T15:03:59.810Z,38.79
2018-08-31T15:06:26.134Z,39.72
2018-08-31T15:08:52.446Z,38.14
2018-08-31T15:11:18.778Z,38.18
2018-08-31T15:13:45.105Z,38.88
2018-08-31T15:16:11.437Z,38.72
2018-08-31T15:18:38.774Z,39.21
2018-08-31T15:21:05.091Z,38.87
2018-08-31T15:23:31.545Z,38.77
2018-08-31T15:25:57.730Z,39.33
2018-08-31T15:28:24.057Z,39.55
2018-08-31T15:30:50.385Z,38.89
2018-08-31T15:33:16.696Z,39.00
2018-08-31T15:35:43.075Z,39.75
2018-08-31T15:38:09.446Z,39.53
2018-08-31T15:40:35.771Z,39.16
2018-08-31T15:43:02.120Z,39.26
2018-08-31T15:45:28.495Z,39.33
2018-08-31T15:47:54.823Z,39.66
2018-08-31T15:50:21.158Z,39.78
2018-08-31T15:52:47.465Z,39.89
2018-08-31T15:55:13.776Z,39.82
2018-08-31T15:57:40.141Z,39.98
2018-08-31T16:00:06.524Z,40.18
2018-08-31T16:02:32.913Z,40.53
2018-08-31T16:04:59.141Z,40.19
2018-08-31T16:07:25.470Z,40.36
2018-08-31T16:09:51.816Z,41.12
2018-08-31T16:12:18.125Z,41.12
2018-08-31T16:14:44.459Z,41.07
2018-08-31T16:17:10.785Z,41.74
2018-08-31T16:19:37.101Z,43.55
2018-08-31T16:22:03.422Z,42.44
2018-08-31T16:24:29.757Z,42.62
2018-08-31T16:26:56.090Z,44.06
2018-08-31T16:29:22.448Z,44.45
2018-08-31T16:31:48.774Z,45.03
2018-08-31T16:34:15.093Z,44.83
2018-08-31T16:36:41.428Z,44.92
2018-08-31T16:39:07.756Z,45.64
2018-08-31T16:41:34.099Z,45.58
2018-08-31T16:44:00.427Z,45.49
2018-08-31T16:46:26.791Z,46.76
2018-08-31T16:48:53.107Z,46.45
2018-08-31T16:51:19.463Z,47.47
2018-08-31T16:53:45.773Z,47.03
2018-08-31T16:56:12.099Z,46.92
2018-08-31T16:58:38.411Z,50.04
2018-08-31T17:01:04.743Z,48.94
2018-08-31T17:03:31.075Z,47.70
2018-08-31T17:05:57.403Z,48.19
2018-08-31T17:08:23.731Z,50.92
2018-08-31T17:10:50.085Z,48.21
2018-08-31T17:13:16.420Z,48.44
2018-08-31T17:15:42.784Z,49.63
2018-08-31T17:18:09.111Z,48.30
2018-08-31T17:20:35.434Z,48.99
2018-08-31T17:23:01.758Z,48.82
2018-08-31T17:25:28.087Z,48.54
2018-08-31T17:27:54.413Z,48.08
2018-08-31T17:30:20.783Z,49.16
2018-08-31T17:32:47.097Z,48.42
2018-08-31T17:35:13.461Z,49.10
2018-08-31T17:37:39.785Z,50.00
2018-08-31T17:40:06.099Z,50.60
2018-08-31T17:42:32.422Z,50.51
2018-08-31T17:44:58.751Z,50.21
2018-08-31T17:47:25.085Z,50.95
2018-08-31T17:49:51.406Z,50.00
2018-08-31T17:52:17.715Z,51.63
2018-08-31T17:54:44.027Z,49.91
2018-08-31T17:57:10.417Z,49.65
2018-08-31T17:59:36.731Z,50.03
2018-08-31T18:02:03.045Z,49.76
2018-08-31T18:04:29.352Z,50.61
2018-08-31T18:06:55.721Z,49.90
2018-08-31T18:09:22.114Z,49.94
2018-08-31T18:11:48.351Z,49.95
2018-08-31T18:14:14.677Z,51.25
2018-08-31T18:16:41.136Z,50.10
2018-08-31T18:19:07.308Z,50.36
2018-08-31T18:21:33.638Z,50.72
2018-08-31T18:23:59.974Z,50.48
2018-08-31T18:26:26.299Z,51.70
2018-08-31T18:28:52.616Z,52.38
2018-08-31T18:31:18.931Z,52.14
2018-08-31T18:33:45.253Z,51.37
2018-08-31T18:36:11.642Z,52.00
2018-08-31T18:38:37.958Z,50.25
2018-08-31T18:41:04.288Z,50.42
2018-08-31T18:43:30.600Z,50.37
2018-08-31T18:45:56.939Z,50.23
2018-08-31T18:48:23.293Z,50.17
2018-08-31T18:50:49.619Z,52.32
2018-08-31T18:53:15.931Z,51.21
2018-08-31T18:55:42.262Z,50.21
2018-08-31T18:58:08.583Z,51.11
2018-08-31T19:00:34.914Z,50.02
2018-08-31T19:03:01.244Z,51.91
2018-08-31T19:05:27.575Z,50.96
2018-08-31T19:07:53.903Z,51.29
2018-08-31T19:10:20.234Z,51.57
2018-08-31T19:12:46.610Z,51.45
2018-08-31T19:15:12.897Z,51.34
2018-08-31T19:17:39.226Z,51.62
2018-08-31T19:20:05.555Z,51.47
2018-08-31T19:22:31.865Z,52.55
2018-08-31T19:24:58.313Z,52.07
2018-08-31T19:27:24.530Z,51.63
2018-08-31T19:29:50.863Z,51.80
2018-08-31T19:32:17.175Z,51.09
2018-08-31T19:34:43.485Z,51.69
2018-08-31T19:37:09.813Z,52.24
2018-08-31T19:39:36.119Z,51.95
2018-08-31T19:42:02.450Z,51.81
2018-08-31T19:44:28.783Z,52.55
2018-08-31T19:46:55.214Z,52.72
2018-08-31T19:49:21.433Z,52.17
2018-08-31T19:51:47.754Z,52.20
2018-08-31T19:54:14.070Z,52.08
2018-08-31T19:56:40.398Z,51.96
2018-08-31T19:59:06.709Z,52.23
2018-08-31T20:01:33.039Z,52.98
2018-08-31T20:03:59.368Z,53.23
2018-08-31T20:06:25.707Z,53.42
2018-08-31T20:08:52.042Z,53.56
2018-08-31T20:11:18.352Z,52.83
2018-08-31T20:13:44.675Z,53.20
2018-08-31T20:16:11.061Z,53.00
2018-08-31T20:18:37.299Z,52.24
2018-08-31T20:21:03.621Z,53.09
2018-08-31T20:23:29.961Z,52.73
2018-08-31T20:25:56.274Z,52.42
2018-08-31T20:28:22.652Z,52.65
2018-08-31T20:30:49.009Z,52.96
2018-08-31T20:33:15.271Z,53.08
2018-08-31T20:35:41.597Z,52.99
2018-08-31T20:38:07.907Z,53.56
2018-08-31T20:40:34.220Z,53.68
2018-08-31T20:43:00.565Z,53.74
2018-08-31T20:45:26.849Z,53.30
2018-08-31T20:47:53.163Z,53.54
2018-08-31T20:50:19.489Z,54.14
2018-08-31T20:52:45.814Z,53.85
2018-08-31T20:55:12.130Z,53.87
2018-08-31T20:57:38.494Z,53.34
2018-08-31T21:00:04.837Z,53.20
2018-08-31T21:02:31.203Z,53.88
2018-08-31T21:04:57.466Z,53.57
2018-08-31T21:07:23.789Z,53.86
2018-08-31T21:09:50.119Z,53.18
2018-08-31T21:12:16.445Z,53.14
2018-08-31T21:14:42.763Z,52.97
2018-08-31T21:17:09.079Z,53.86
2018-08-31T21:19:35.403Z,53.46
2018-08-31T21:22:01.716Z,53.48
2018-08-31T21:24:28.055Z,54.14
2018-08-31T21:26:54.376Z,54.22
2018-08-31T21:29:20.712Z,54.62
2018-08-31T21:31:47.038Z,55.00
2018-08-31T21:34:13.385Z,55.05
2018-08-31T21:36:39.713Z,54.15
2018-08-31T21:39:06.022Z,55.81
2018-08-31T21:41:32.353Z,56.30
2018-08-31T21:43:58.700Z,55.81
2018-08-31T21:46:25.114Z,55.28
2018-08-31T21:48:51.471Z,55.38
2018-08-31T21:51:17.788Z,55.19
2018-08-31T21:53:44.123Z,55.78
2018-08-31T21:56:10.451Z,55.98
2018-08-31T21:58:36.768Z,56.08
2018-08-31T22:01:03.112Z,56.34
2018-08-31T22:03:29.413Z,56.23
2018-08-31T22:05:55.756Z,56.40
2018-08-31T22:08:22.140Z,57.14
2018-08-31T22:10:48.403Z,57.21
2018-08-31T22:13:14.747Z,56.97
2018-08-31T22:15:41.126Z,56.97
2018-08-31T22:18:07.427Z,57.09
2018-08-31T22:20:33.740Z,56.87
2018-08-31T22:23:00.141Z,57.52
2018-08-31T22:25:26.463Z,58.11
2018-08-31T22:27:52.817Z,57.65
2018-08-31T22:30:19.166Z,57.85
2018-08-31T22:32:45.500Z,58.35
2018-08-31T22:35:11.833Z,59.25
2018-08-31T22:37:38.212Z,58.91
2018-08-31T22:40:04.529Z,58.96
2018-08-31T22:42:30.848Z,59.05
2018-08-31T22:44:57.194Z,58.55
2018-08-31T22:47:23.581Z,58.67
2018-08-31T22:49:49.938Z,58.60
2018-08-31T22:52:16.295Z,58.70
2018-08-31T22:54:42.595Z,58.65
2018-08-31T22:57:08.924Z,58.27
2018-08-31T22:59:35.336Z,58.37
2018-08-31T23:02:01.606Z,58.75
2018-08-31T23:04:27.964Z,58.57
2018-08-31T23:06:54.293Z,58.45
2018-08-31T23:09:20.612Z,59.03
2018-08-31T23:11:46.947Z,59.85
2018-08-31T23:14:13.275Z,60.04
2018-08-31T23:16:39.624Z,60.52
2018-08-31T23:19:06.040Z,60.32
2018-08-31T23:21:32.354Z,60.26
2018-08-31T23:23:58.674Z,60.68
2018-08-31T23:26:24.999Z,61.34
2018-08-31T23:28:51.314Z,60.72
2018-08-31T23:31:17.624Z,60.87
2018-08-31T23:33:43.949Z,61.15
2018-08-31T23:36:10.270Z,61.40
2018-08-31T23:38:36.596Z,62.03
2018-08-31T23:41:02.916Z,62.18
2018-08-31T23:43:29.283Z,62.41
2018-08-31T23:45:55.605Z,62.15
2018-08-31T23:48:21.921Z,62.56
2018-08-31T23:50:48.242Z,62.64
2018-08-31T23:53:14.581Z,62.54
2018-08-31T23:55:40.890Z,63.13
2018-08-31T23:58:07.219Z,63.15
